createdAt,value
2022-08-12T11:34:06.569Z,29.80
2022-08-12T11:36:40.666Z,29.80
2022-08-12T11:39:11.375Z,29.80
2022-08-12T11:41:40.827Z,29.90
2022-08-12T11:44:36.574Z,29.80
2022-08-12T11:46:59.704Z,30.00
2022-08-12T11:49:32.239Z,30.00
2022-08-12T11:52:01.973Z,30.00
2022-08-12T11:54:30.521Z,30.00
2022-08-12T11:57:00.309Z,30.00
2022-08-12T12:02:20.807Z,30.10
2022-08-12T12:04:53.111Z,30.00
2022-08-12T12:08:36.187Z,30.00
2022-08-12T12:10:13.472Z,30.00
2022-08-12T12:12:49.923Z,30.20
2022-08-12T12:15:25.125Z,30.10
2022-08-12T12:18:06.852Z,30.00
2022-08-12T12:20:37.073Z,29.90
2022-08-12T12:23:10.533Z,30.20
2022-08-12T12:26:07.486Z,30.20
2022-08-12T12:28:39.654Z,30.20
2022-08-12T12:31:14.981Z,30.20
2022-08-12T12:33:58.057Z,30.20
2022-08-12T12:36:30.111Z,30.30
2022-08-12T12:38:59.945Z,30.30
2022-08-12T12:42:41.719Z,30.30
2022-08-12T12:44:25.893Z,30.40
2022-08-12T12:47:28.695Z,30.30
2022-08-12T12:49:53.563Z,30.30
2022-08-12T12:52:26.758Z,30.20
2022-08-12T12:54:58.518Z,30.10
2022-08-12T12:57:59.085Z,30.20
2022-08-12T13:00:16.015Z,30.30
2022-08-12T13:02:53.642Z,30.40
2022-08-12T13:05:27.908Z,30.40
2022-08-12T13:08:00.722Z,30.40
2022-08-12T13:10:36.899Z,30.30
2022-08-12T13:14:07.356Z,30.30
2022-08-12T13:15:59.414Z,30.40
2022-08-12T13:18:31.537Z,30.30
2022-08-12T13:20:59.946Z,30.30
2022-08-12T13:23:36.150Z,30.30
2022-08-12T13:26:14.225Z,30.50
2022-08-12T13:28:49.614Z,30.50
2022-08-12T13:31:25.114Z,30.40
2022-08-12T13:34:32.795Z,30.60
2022-08-12T13:36:45.319Z,30.70
2022-08-12T13:39:16.976Z,30.70
2022-08-12T13:41:45.144Z,30.60
2022-08-12T13:44:13.319Z,30.70
2022-08-12T13:46:42.190Z,30.60
2022-08-12T13:49:17.593Z,30.60
2022-08-12T13:52:01.968Z,30.70
2022-08-12T13:54:33.858Z,30.60
2022-08-12T13:57:02.040Z,30.50
2022-08-12T13:59:30.883Z,30.50
2022-08-12T14:02:17.461Z,30.50
2022-08-12T14:04:45.707Z,30.40
2022-08-12T14:07:25.836Z,30.50
2022-08-12T14:10:16.472Z,30.60
2022-08-12T14:12:53.945Z,30.60
2022-08-12T14:15:36.702Z,30.70
2022-08-12T14:18:14.227Z,30.60
2022-08-12T14:20:47.543Z,30.60
2022-08-12T14:24:04.389Z,30.60
2022-08-12T14:26:12.087Z,30.60
2022-08-12T14:28:45.437Z,30.60
2022-08-12T14:31:32.075Z,30.60
2022-08-12T14:34:04.998Z,30.60
2022-08-12T14:36:34.187Z,30.70
2022-08-12T14:39:06.075Z,30.70
2022-08-12T14:41:48.550Z,30.70
2022-08-12T14:44:57.489Z,30.60
2022-08-12T14:47:13.829Z,30.60
2022-08-12T14:50:34.391Z,30.70
2022-08-12T14:53:26.744Z,30.70
2022-08-12T14:58:10.675Z,30.60
2022-08-12T15:00:57.496Z,30.60
2022-08-12T15:03:52.130Z,30.70
2022-08-12T15:06:44.184Z,30.60
2022-08-12T15:09:12.619Z,30.60
2022-08-12T15:11:55.621Z,30.60
2022-08-12T15:14:35.430Z,30.60
2022-08-12T15:17:09.181Z,30.60
2022-08-12T15:20:11.590Z,30.60
2022-08-12T15:22:38.264Z,30.70
2022-08-12T15:25:20.390Z,30.60
2022-08-12T15:28:04.600Z,30.50
2022-08-12T15:30:39.841Z,30.40
2022-08-12T15:33:12.927Z,30.40
2022-08-12T15:35:51.990Z,30.40
2022-08-12T15:38:24.880Z,30.40
2022-08-12T15:40:55.695Z,30.50
2022-08-12T15:44:16.276Z,30.40
2022-08-12T15:46:21.335Z,30.60
2022-08-12T15:48:54.945Z,30.70
2022-08-12T15:51:58.506Z,30.60
2022-08-12T15:54:35.076Z,30.60
2022-08-12T15:57:08.379Z,30.60
2022-08-12T15:59:51.336Z,30.70
2022-08-12T16:02:29.540Z,30.70
2022-08-12T16:04:58.438Z,30.70
2022-08-12T16:07:36.922Z,30.60
2022-08-12T16:10:08.658Z,30.60
2022-08-12T16:12:43.214Z,30.50
2022-08-12T16:15:15.867Z,30.50
2022-08-12T16:18:17.913Z,30.40
2022-08-12T16:20:39.599Z,30.50
2022-08-12T16:23:36.060Z,30.50
2022-08-12T16:26:06.350Z,30.50
2022-08-12T16:28:44.349Z,30.40
2022-08-12T16:31:23.442Z,30.50
2022-08-12T16:34:00.408Z,30.40
2022-08-12T16:36:30.038Z,30.30
2022-08-12T16:39:01.769Z,30.30
2022-08-12T16:41:33.531Z,30.20
2022-08-12T16:44:08.259Z,30.20
2022-08-12T16:46:37.600Z,30.10
2022-08-12T16:49:09.071Z,30.10
2022-08-12T16:51:45.926Z,30.10
2022-08-12T16:54:16.191Z,30.20
2022-08-12T16:56:55.526Z,30.10
2022-08-12T16:59:52.777Z,30.20
2022-08-12T17:02:31.530Z,30.10
2022-08-12T17:05:04.678Z,30.00
2022-08-12T17:07:37.938Z,29.90
2022-08-12T17:10:07.940Z,29.90
2022-08-12T17:12:37.680Z,29.90
2022-08-12T17:15:21.277Z,29.80
2022-08-12T17:18:39.156Z,29.90
2022-08-12T17:20:48.420Z,29.80
2022-08-12T17:23:19.428Z,29.80
2022-08-12T17:25:50.468Z,29.80
2022-08-12T17:28:19.718Z,29.80
2022-08-12T17:30:59.616Z,29.70
2022-08-12T17:33:33.397Z,29.70
2022-08-12T17:36:05.460Z,29.60
2022-08-12T17:38:35.030Z,29.60
2022-08-12T17:41:22.554Z,29.50
2022-08-12T17:43:56.839Z,29.50
2022-08-12T17:46:33.168Z,29.50
2022-08-12T17:49:18.853Z,29.50
2022-08-12T17:52:02.460Z,29.40
2022-08-12T17:54:32.789Z,29.40
2022-08-12T17:57:02.492Z,29.30
2022-08-12T17:59:48.598Z,29.20
2022-08-12T18:02:22.572Z,29.20
2022-08-12T18:05:05.431Z,29.10
2022-08-12T18:07:39.868Z,29.00
2022-08-12T18:10:09.533Z,29.00
2022-08-12T18:12:42.199Z,28.90
2022-08-12T18:15:26.888Z,28.90
2022-08-12T18:18:16.761Z,28.80
2022-08-12T18:20:46.385Z,28.70
2022-08-12T18:23:15.774Z,28.60
2022-08-12T18:26:14.335Z,28.50
2022-08-12T18:28:48.346Z,28.40
2022-08-12T18:31:18.496Z,28.40
2022-08-12T18:33:47.946Z,28.30
2022-08-12T18:36:22.719Z,28.20
2022-08-12T18:38:56.232Z,28.10
2022-08-12T18:41:34.123Z,28.00
2022-08-12T18:44:05.180Z,27.90
2022-08-12T18:46:54.407Z,27.90
2022-08-12T18:49:30.785Z,27.80
2022-08-12T18:52:05.377Z,27.60
2022-08-12T18:54:41.360Z,27.50
2022-08-12T18:57:45.716Z,27.30
2022-08-12T19:00:09.768Z,27.20
2022-08-12T19:02:40.427Z,27.10
2022-08-12T19:05:10.801Z,26.90
2022-08-12T19:08:00.363Z,26.80
2022-08-12T19:10:32.618Z,26.70
2022-08-12T19:13:23.114Z,26.50
2022-08-12T19:15:54.484Z,26.30
2022-08-12T19:18:29.479Z,26.20
2022-08-12T19:20:59.050Z,26.10
2022-08-12T19:23:35.007Z,26.00
2022-08-12T19:26:05.280Z,26.00
2022-08-12T19:28:39.119Z,26.00
2022-08-12T19:31:55.382Z,25.90
2022-08-12T19:34:47.104Z,25.80
2022-08-12T19:37:20.096Z,25.60
2022-08-12T19:40:10.221Z,25.60
2022-08-12T19:42:42.662Z,25.50
2022-08-12T19:45:15.683Z,25.40
2022-08-12T19:47:45.986Z,25.20
2022-08-12T19:50:20.265Z,25.20
2022-08-12T19:52:51.047Z,25.10
2022-08-12T19:55:21.827Z,25.00
2022-08-12T19:58:01.345Z,24.90
2022-08-12T20:00:34.943Z,24.80
2022-08-12T20:03:07.708Z,24.70
2022-08-12T20:06:06.335Z,24.70
2022-08-12T20:08:33.107Z,24.60
2022-08-12T20:12:11.962Z,24.50
2022-08-12T20:14:00.634Z,24.40
2022-08-12T20:19:53.227Z,24.10
2022-08-12T20:22:24.047Z,24.00
2022-08-12T20:25:01.611Z,23.90
2022-08-12T20:28:02.730Z,23.80
2022-08-12T20:30:37.922Z,23.80
2022-08-12T20:33:16.767Z,23.80
2022-08-12T20:36:13.837Z,23.80
2022-08-12T20:38:39.745Z,23.70
2022-08-12T20:41:17.616Z,23.70
2022-08-12T20:43:49.599Z,23.60
2022-08-12T20:46:20.255Z,23.50
2022-08-12T20:48:54.487Z,23.40
2022-08-12T20:51:27.694Z,23.30
2022-08-12T20:53:58.821Z,23.20
2022-08-12T20:56:32.972Z,23.20
2022-08-12T20:59:04.989Z,23.20
2022-08-12T21:01:46.289Z,23.10
2022-08-12T21:04:35.186Z,23.10
2022-08-12T21:07:09.396Z,23.00
2022-08-12T21:09:41.986Z,22.90
2022-08-12T21:12:24.693Z,22.80
2022-08-12T21:15:23.197Z,22.70
2022-08-12T21:18:09.623Z,22.70
2022-08-12T21:20:38.910Z,22.70
2022-08-12T21:23:09.628Z,22.70
2022-08-12T21:25:44.536Z,22.60
2022-08-12T21:28:14.001Z,22.60
2022-08-12T21:31:11.526Z,22.60
2022-08-12T21:33:58.278Z,22.60
2022-08-12T21:36:22.778Z,22.50
2022-08-12T21:39:01.489Z,22.50
2022-08-12T21:41:51.249Z,22.50
2022-08-12T21:44:24.257Z,22.40
2022-08-12T21:47:21.332Z,22.20
2022-08-12T21:50:03.074Z,22.20
2022-08-12T21:52:49.260Z,22.20
2022-08-12T21:55:20.388Z,22.20
2022-08-12T21:57:54.640Z,22.20
2022-08-12T22:00:34.799Z,22.10
2022-08-12T22:04:01.699Z,22.10
2022-08-12T22:06:30.984Z,22.00
2022-08-12T22:09:17.206Z,21.90
2022-08-12T22:11:49.261Z,21.80
2022-08-12T22:14:26.931Z,21.80
2022-08-12T22:16:56.632Z,21.90
2022-08-12T22:19:24.680Z,21.80
2022-08-12T22:21:58.763Z,21.80
2022-08-12T22:24:31.869Z,21.80
2022-08-12T22:27:18.374Z,21.90
2022-08-12T22:30:06.175Z,21.80
2022-08-12T22:32:36.575Z,21.80
2022-08-12T22:35:23.144Z,21.70
2022-08-12T22:37:55.898Z,21.70
2022-08-12T22:40:24.276Z,21.70
2022-08-12T22:43:15.305Z,21.70
2022-08-12T22:46:01.867Z,21.70
2022-08-12T22:48:30.594Z,21.60
2022-08-12T22:50:59.333Z,21.60
2022-08-12T22:53:35.900Z,21.50
2022-08-12T22:56:07.163Z,21.50
2022-08-12T22:58:36.711Z,21.30
2022-08-12T23:01:10.903Z,21.30
2022-08-12T23:03:49.620Z,21.30
2022-08-12T23:06:20.231Z,21.30
2022-08-12T23:08:49.861Z,21.30
2022-08-12T23:11:23.771Z,21.30
2022-08-12T23:13:56.397Z,21.20
2022-08-12T23:16:31.881Z,21.20
2022-08-12T23:19:10.392Z,21.20
2022-08-12T23:22:05.064Z,21.20
2022-08-12T23:24:54.031Z,21.20
2022-08-12T23:27:50.242Z,21.20
2022-08-12T23:30:25.189Z,21.10
2022-08-12T23:33:00.615Z,21.10
2022-08-12T23:35:46.022Z,21.00
2022-08-12T23:38:30.843Z,21.00
2022-08-12T23:41:03.680Z,21.00
2022-08-12T23:43:39.729Z,21.00
2022-08-12T23:46:10.148Z,20.90
2022-08-12T23:48:38.971Z,20.90
2022-08-12T23:51:22.534Z,20.90
2022-08-12T23:53:54.974Z,20.80
2022-08-12T23:56:25.332Z,20.80
2022-08-12T23:58:57.383Z,20.70
